Skip to main content.
Our real time weather data display below is updated continuously via our 24/7 live data feed.
 TIME   TEMPERATURE   WINDSPEED   DIRECTION   HUMIDITY   BAROMETER   RAINFALL 
5:15 13.0°C (55.4°F) 9.3 kmh (5.8 mph) W 93% 1023.0hPa (30.21 inHg) 0.0mm (0.00 in.)
4:15 14.0°C (57.2 °F) 9.3 kmh (5.8 mph) W 87% 1023.0hPa (30.21 inHg) 0.0mm (0.00 in.)
3:15 14.0°C (57.2 °F) 7.4 kmh (4.6 mph) WNW 82% 1023.0hPa (30.21 inHg) 0.0mm (0.00 in.)
2:15 15.0°C (59.0 °F) 9.3 kmh (5.8 mph) WNW 82% 1023.0hPa (30.21 inHg) 0.0mm (0.00 in.)
1:15 14.0°C (57.2 °F) 11.1 kmh (6.9 mph) W 87% 1023.0hPa (30.21 inHg) 0.0mm (0.00 in.)
0:15 15.0°C (59.0 °F) 7.4 kmh (4.6 mph) WNW 87% 1024.0hPa (30.24 inHg) 0.0mm (0.00 in.)
23:15 14.0°C (57.2 °F) 9.3 kmh (5.8 mph) W 93% 1024.0hPa (30.24 inHg) 0.0mm (0.00 in.)
22:15 15.0°C (59.0 °F) 9.3 kmh (5.8 mph) W 87% 1024.0hPa (30.24 inHg) 0.0mm (0.00 in.)
21:15 15.0°C (59.0 °F) 9.3 kmh (5.8 mph) W 93% 1024.0hPa (30.24 inHg) 0.0mm (0.00 in.)
20:15 15.0°C (59.0 °F) 9.3 kmh (5.8 mph) W 93% 1024.0hPa (30.24 inHg) 0.0mm (0.00 in.)
19:15 16.0°C (60.8 °F) 9.3 kmh (5.8 mph) WNW 87% 1024.0hPa (30.24 inHg) 0.0mm (0.00 in.)
18:15 16.0°C (60.8 °F) 9.3 kmh (5.8 mph) WNW 87% 1023.0hPa (30.21 inHg) 0.0mm (0.00 in.)
17:15 17.0°C (62.6 °F) 7.4 kmh (4.6 mph) W 82% 1023.0hPa (30.21 inHg) 0.0mm (0.00 in.)
16:15 18.0°C (64.4 °F) 9.3 kmh (5.8 mph) WNW 77% 1023.0hPa (30.21 inHg) 0.0mm (0.00 in.)
15:15 18.0°C (64.4 °F) 13.0 kmh (8.1 mph) W 77% 1023.0hPa (30.21 inHg) 0.0mm (0.00 in.)
14:15 20.0°C (68.0 °F) 13.0 kmh (8.1 mph) W 68% 1023.0hPa (30.21 inHg) 0.0mm (0.00 in.)
13:15 20.0°C (68.0 °F) 13.0 kmh (8.1 mph) W 72% 1024.0hPa (30.24 inHg) 0.0mm (0.00 in.)
12:15 19.0°C (66.2 °F) 9.3 kmh (5.8 mph) WNW 77% 1024.0hPa (30.24 inHg) 0.0mm (0.00 in.)
11:15 19.0°C (66.2 °F) 13.0 kmh (8.1 mph) WNW 82% 1024.0hPa (30.24 inHg) 0.0mm (0.00 in.)
10:15 19.0°C (66.2 °F) 9.3 kmh (5.8 mph) NW 88% 1024.0hPa (30.24 inHg) 0.0mm (0.00 in.)
9:15 17.0°C (62.6 °F) 7.4 kmh (4.6 mph) NW 100% 1024.0hPa (30.24 inHg) 0.0mm (0.00 in.)
8:15 15.0°C (59.0 °F) 13.0 kmh (8.1 mph) NW 100% 1023.0hPa (30.21 inHg) 0.0mm (0.00 in.)
7:15 15.0°C (59.0 °F) 7.4 kmh (4.6 mph) NNW 100% 1023.0hPa (30.21 inHg) 0.0mm (0.00 in.)
6:15 15.0°C (59.0 °F) 9.3 kmh (5.8 mph) N 100% 1022.0hPa (30.18 inHg) 0.0mm (0.00 in.)